Time;durP1;ratioP1;P1;durP2;ratioP2;P2;SDS_P1;SDS_P2;PMS_P1;PMS_P2;Temp;Humidity;BMP_temperature;BMP_pressure;BME280_temperature;BME280_humidity;BME280_pressure;Samples;Min_cycle;Max_cycle;Signal;HPM_P1;HPM_P2
2023/02/12 10:12:16;;;;;;;45.57;40.87;;;10.50;99.90;;;;;;5103319;27;20557;-75
2023/02/12 10:15:09;;;;;;;38.00;34.23;;;12.50;99.90;;;;;;5103803;28;20454;-75
2023/02/12 10:17:42;;;;;;;40.77;37.00;;;12.70;99.90;;;;;;5103416;28;20454;-74
2023/02/12 10:20:30;;;;;;;36.43;32.87;;;12.50;99.90;;;;;;5103230;28;20502;-75
2023/02/12 10:23:08;;;;;;;37.20;33.20;;;12.60;99.90;;;;;;5103464;28;20459;-75
2023/02/12 10:25:43;;;;;;;39.10;35.27;;;13.30;99.90;;;;;;5103256;28;20506;-76
2023/02/12 10:28:16;;;;;;;35.60;32.20;;;13.40;99.90;;;;;;5103487;28;20454;-76
2023/02/12 10:30:47;;;;;;;34.60;31.23;;;13.60;99.90;;;;;;5103715;28;20577;-75
2023/02/12 10:33:18;;;;;;;36.50;33.20;;;13.40;99.90;;;;;;5103415;28;21008;-75
2023/02/12 10:35:50;;;;;;;33.80;30.70;;;13.70;99.50;;;;;;5103558;28;20470;-76
2023/02/12 10:38:21;;;;;;;34.10;31.13;;;13.30;99.50;;;;;;5103144;28;20462;-76
2023/02/12 10:40:49;;;;;;;33.13;30.13;;;13.50;99.90;;;;;;5103024;28;20450;-75
2023/02/12 10:43:17;;;;;;;31.00;28.30;;;13.60;99.80;;;;;;5103131;28;20453;-76
2023/02/12 10:45:44;;;;;;;30.97;28.10;;;13.40;99.40;;;;;;5103064;28;20454;-76
2023/02/12 10:48:15;;;;;;;32.37;29.20;;;13.00;99.70;;;;;;5102868;27;20747;-76
2023/02/12 10:50:55;;;;;;;28.30;25.83;;;12.90;99.90;;;;;;5102863;28;20505;-76
2023/02/12 10:53:24;;;;;;;28.73;26.20;;;13.20;99.90;;;;;;5102704;28;20493;-74
2023/02/12 10:56:08;;;;;;;29.13;26.30;;;13.20;99.90;;;;;;5102643;28;20442;-75
2023/02/12 10:58:36;;;;;;;28.40;25.90;;;13.30;99.90;;;;;;5102612;28;21118;-74
2023/02/12 11:01:04;;;;;;;28.17;25.87;;;13.30;99.90;;;;;;5102668;28;20454;-75
2023/02/12 11:03:34;;;;;;;29.50;26.80;;;13.20;99.90;;;;;;5102858;28;20542;-76
2023/02/12 11:06:13;;;;;;;28.70;26.10;;;13.10;99.90;;;;;;5102528;28;20449;-74
2023/02/12 11:08:40;;;;;;;28.47;25.83;;;13.40;99.90;;;;;;5102394;28;20810;-74
2023/02/12 11:11:11;;;;;;;27.90;25.40;;;13.70;99.90;;;;;;5099639;28;20490;-74
2023/02/12 11:13:41;;;;;;;26.73;24.23;;;14.00;99.60;;;;;;5088890;28;20546;-73
2023/02/12 11:16:07;;;;;;;28.23;25.90;;;14.20;98.80;;;;;;5088903;28;20446;-74
2023/02/12 11:18:36;;;;;;;28.23;25.67;;;14.00;98.80;;;;;;5088816;28;20451;-74
2023/02/12 11:21:05;;;;;;;18.17;16.77;;;13.60;99.10;;;;;;5088720;28;20466;-75
2023/02/12 11:23:33;;;;;;;17.87;16.57;;;12.90;99.90;;;;;;5088943;28;20441;-75
2023/02/12 11:26:02;;;;;;;17.13;15.77;;;11.90;99.90;;;;;;5088846;28;20862;-74
2023/02/12 11:28:30;;;;;;;20.53;18.73;;;11.40;99.90;;;;;;5088820;28;20446;-74
2023/02/12 11:31:01;;;;;;;16.77;15.50;;;11.30;99.90;;;;;;5088765;28;20487;-75
2023/02/12 11:33:31;;;;;;;16.27;14.97;;;11.10;99.90;;;;;;5088959;28;20820;-75
2023/02/12 11:36:00;;;;;;;15.97;14.77;;;10.90;99.90;;;;;;5088811;28;20454;-75
2023/02/12 11:38:34;;;;;;;14.93;13.90;;;10.70;99.90;;;;;;5088759;28;20549;-75
2023/02/12 11:41:06;;;;;;;16.80;15.60;;;10.70;99.90;;;;;;5088739;28;20960;-76
2023/02/12 11:43:36;;;;;;;15.13;14.03;;;10.80;99.90;;;;;;5088371;28;20442;-75
2023/02/12 11:46:07;;;;;;;16.47;15.17;;;10.90;99.90;;;;;;5088397;28;20459;-75
2023/02/12 11:48:37;;;;;;;15.60;14.40;;;10.90;99.90;;;;;;5088270;28;20459;-75
2023/02/12 11:51:07;;;;;;;16.23;14.90;;;10.80;99.90;;;;;;5088161;28;20490;-75
2023/02/12 11:53:37;;;;;;;16.70;15.33;;;10.80;99.90;;;;;;5088084;28;20461;-75
2023/02/12 11:56:06;;;;;;;16.27;15.07;;;11.00;99.90;;;;;;5088202;28;20462;-73
2023/02/12 11:58:32;;;;;;;15.93;14.80;;;11.20;99.90;;;;;;5088159;28;20463;-74
2023/02/12 12:01:08;;;;;;;15.37;14.20;;;11.30;99.90;;;;;;5088433;28;20454;-74
2023/02/12 12:03:42;;;;;;;15.50;14.30;;;11.30;99.90;;;;;;5087872;28;21129;-75
2023/02/12 12:06:20;;;;;;;15.50;14.40;;;11.50;99.90;;;;;;5087203;28;20454;-74
2023/02/12 12:08:53;;;;;;;16.10;14.80;;;11.40;99.90;;;;;;5087211;28;20439;-74
2023/02/12 12:11:25;;;;;;;14.30;13.30;;;11.50;99.90;;;;;;5086627;28;20507;-74
2023/02/12 12:13:57;;;;;;;14.50;13.50;;;11.40;99.90;;;;;;5087017;28;20542;-76
2023/02/12 12:22:16;;;;;;;14.47;13.57;;;11.80;99.90;;;;;;5086667;28;20944;-75
2023/02/12 12:24:47;;;;;;;14.97;13.77;;;12.00;99.90;;;;;;5085994;28;20877;-74
2023/02/12 12:30:15;;;;;;;15.20;14.10;;;11.80;99.90;;;;;;5086687;28;20730;-75
2023/02/12 12:32:47;;;;;;;16.37;15.07;;;11.80;99.90;;;;;;5086890;28;20933;-76
2023/02/12 12:35:22;;;;;;;14.27;13.37;;;12.00;99.90;;;;;;5086792;28;20451;-74
2023/02/12 12:37:54;;;;;;;15.47;14.30;;;12.20;99.90;;;;;;5086468;28;20804;-75
2023/02/12 12:40:42;;;;;;;16.57;15.10;;;12.20;99.90;;;;;;5086552;28;20726;-76
2023/02/12 12:43:13;;;;;;;13.77;12.87;;;11.90;99.90;;;;;;5086470;28;20580;-75
2023/02/12 12:45:58;;;;;;;15.07;13.87;;;12.00;99.90;;;;;;5086534;28;21040;-74
2023/02/12 12:48:43;;;;;;;14.70;13.60;;;12.00;99.90;;;;;;5086599;28;20450;-74
2023/02/12 12:51:23;;;;;;;16.67;15.27;;;12.30;99.90;;;;;;5086565;28;20486;-76
2023/02/12 12:54:03;;;;;;;15.10;14.10;;;12.10;99.90;;;;;;5086506;28;20461;-75
2023/02/12 12:56:45;;;;;;;15.17;14.17;;;12.20;99.90;;;;;;5086573;28;20494;-75
2023/02/12 12:59:45;;;;;;;15.13;14.23;;;12.30;99.90;;;;;;5086464;28;20443;-75
2023/02/12 13:02:43;;;;;;;17.37;16.07;;;12.30;99.90;;;;;;5043138;28;20446;-74
2023/02/12 13:05:55;;;;;;;16.27;15.13;;;12.00;99.90;;;;;;5085823;28;20458;-75
2023/02/12 13:08:41;;;;;;;14.80;13.80;;;11.90;99.90;;;;;;5107573;28;20648;-74
2023/02/12 13:11:19;;;;;;;14.63;13.63;;;12.10;99.90;;;;;;5088196;28;20494;-75
2023/02/12 13:13:49;;;;;;;13.80;12.90;;;13.00;99.90;;;;;;5086579;28;20501;-74
2023/02/12 13:16:21;;;;;;;14.80;13.90;;;13.40;99.90;;;;;;5086137;28;20474;-74
2023/02/12 13:18:58;;;;;;;15.70;14.50;;;13.20;99.90;;;;;;5086081;28;20921;-74
2023/02/12 13:21:41;;;;;;;13.90;13.10;;;13.00;99.90;;;;;;5086116;28;20558;-75
2023/02/12 13:24:20;;;;;;;13.80;13.00;;;12.40;99.90;;;;;;5086028;28;20474;-74
2023/02/12 13:26:51;;;;;;;13.23;12.53;;;12.70;99.90;;;;;;5086027;28;20454;-75
2023/02/12 13:29:20;;;;;;;13.60;12.80;;;13.00;99.90;;;;;;5085796;27;20450;-75
2023/02/12 13:31:53;;;;;;;13.60;12.73;;;12.90;99.90;;;;;;5085971;28;20491;-74
2023/02/12 13:34:21;;;;;;;14.60;13.50;;;12.40;99.90;;;;;;5085597;28;20845;-74
2023/02/12 13:36:49;;;;;;;13.80;12.90;;;12.20;99.90;;;;;;5085628;28;20468;-74
2023/02/12 13:39:27;;;;;;;12.50;11.70;;;11.90;99.90;;;;;;5085780;28;20446;-74
2023/02/12 13:42:08;;;;;;;13.70;12.70;;;11.70;99.90;;;;;;5085579;28;20443;-74
2023/02/12 13:44:43;;;;;;;13.17;12.37;;;11.40;99.90;;;;;;5085690;28;20442;-74
2023/02/12 13:47:20;;;;;;;12.03;11.33;;;11.30;99.90;;;;;;5085638;28;20454;-74
2023/02/12 13:49:52;;;;;;;12.10;11.50;;;11.30;99.90;;;;;;5085939;28;20569;-74
2023/02/12 13:52:30;;;;;;;11.60;10.90;;;11.30;99.90;;;;;;5085222;28;20529;-75
2023/02/12 13:55:14;;;;;;;11.93;11.33;;;11.20;99.90;;;;;;5085639;28;20499;-75
2023/02/12 13:57:41;;;;;;;12.37;11.67;;;11.20;99.90;;;;;;5085788;28;20450;-74
2023/02/12 14:00:46;;;;;;;11.90;11.30;;;11.10;99.90;;;;;;5085347;28;20502;-74
2023/02/12 14:03:13;;;;;;;12.53;11.90;;;11.00;99.90;;;;;;5085354;28;20471;-74
2023/02/12 14:05:40;;;;;;;13.13;12.23;;;11.00;99.90;;;;;;5085258;28;20553;-74
2023/02/12 14:08:08;;;;;;;13.10;12.40;;;10.80;99.90;;;;;;5085178;28;21040;-74
2023/02/12 14:10:40;;;;;;;12.13;11.30;;;10.70;99.90;;;;;;5084638;28;20561;-73
2023/02/12 14:13:21;;;;;;;12.13;11.43;;;10.80;99.90;;;;;;5085065;28;20451;-74
2023/02/12 14:15:50;;;;;;;11.40;10.80;;;10.80;99.90;;;;;;5085068;28;20675;-73
2023/02/12 14:18:37;;;;;;;11.53;10.93;;;10.90;99.90;;;;;;5085046;28;20546;-73
2023/02/12 14:21:39;;;;;;;11.60;11.00;;;10.80;99.90;;;;;;5078313;28;20941;-73
2023/02/12 14:24:50;;;;;;;11.53;10.83;;;10.80;99.90;;;;;;5081605;28;20483;-74
2023/02/12 14:27:49;;;;;;;11.40;10.80;;;10.80;99.90;;;;;;5084912;28;20485;-73
2023/02/12 14:30:32;;;;;;;11.23;10.63;;;10.90;99.90;;;;;;5003028;28;20458;-74
2023/02/12 14:33:21;;;;;;;12.97;12.30;;;10.80;99.90;;;;;;5076084;28;20469;-74
2023/02/12 14:35:51;;;;;;;10.40;9.90;;;10.80;99.90;;;;;;5084757;28;20446;-74
2023/02/12 14:39:01;;;;;;;11.97;10.97;;;10.90;99.90;;;;;;5084725;28;20454;-74
2023/02/12 14:41:43;;;;;;;11.80;11.20;;;10.80;99.90;;;;;;5085039;28;20543;-75
2023/02/12 14:44:54;;;;;;;10.70;10.17;;;10.80;99.90;;;;;;5084550;28;20473;-75
2023/02/12 14:47:52;;;;;;;12.13;11.43;;;10.80;99.90;;;;;;5086172;28;20446;-75
2023/02/12 14:50:23;;;;;;;11.60;11.00;;;10.70;99.90;;;;;;5088270;28;20549;-75
2023/02/12 14:52:55;;;;;;;11.33;10.73;;;10.70;99.90;;;;;;5088088;28;20516;-74
2023/02/12 14:55:28;;;;;;;13.73;12.67;;;10.70;99.90;;;;;;5087838;28;20519;-74
2023/02/12 14:57:58;;;;;;;11.77;11.07;;;10.80;99.90;;;;;;5088099;28;20453;-74
2023/02/12 15:00:30;;;;;;;10.93;10.33;;;10.80;99.90;;;;;;5088455;28;20514;-74
2023/02/12 15:03:02;;;;;;;10.77;10.17;;;10.70;99.90;;;;;;5088247;28;20450;-74
2023/02/12 15:05:32;;;;;;;11.70;11.10;;;10.70;99.90;;;;;;5087976;28;20879;-75
2023/02/12 15:08:02;;;;;;;10.10;9.70;;;10.70;99.90;;;;;;5087946;28;20479;-75
2023/02/12 15:10:32;;;;;;;10.27;9.77;;;10.70;99.90;;;;;;5087848;28;20490;-74
2023/02/12 15:13:08;;;;;;;10.37;9.87;;;10.70;99.90;;;;;;5087883;28;21040;-73
2023/02/12 15:15:41;;;;;;;10.23;9.73;;;10.70;99.90;;;;;;5087919;28;20472;-74
2023/02/12 15:18:15;;;;;;;10.87;10.37;;;10.60;99.90;;;;;;5087832;28;20478;-74
2023/02/12 15:20:48;;;;;;;11.47;10.57;;;10.60;99.90;;;;;;5087960;28;20451;-74
2023/02/12 15:23:40;;;;;;;11.03;10.43;;;10.50;99.90;;;;;;5087998;28;20462;-75
2023/02/12 15:26:13;;;;;;;12.03;11.07;;;10.40;99.90;;;;;;5068183;28;20550;-75
2023/02/12 15:28:40;;;;;;;11.60;11.00;;;10.40;99.90;;;;;;5087676;28;20462;-75
2023/02/12 15:31:10;;;;;;;10.47;9.97;;;10.40;99.90;;;;;;5087526;28;20575;-75
2023/02/12 15:33:41;;;;;;;10.67;10.07;;;10.30;99.90;;;;;;5087523;28;20459;-74
2023/02/12 15:36:10;;;;;;;10.83;10.13;;;10.20;99.90;;;;;;5087443;28;20606;-73
2023/02/12 15:38:40;;;;;;;9.67;9.27;;;10.20;99.90;;;;;;5087703;28;20525;-73
2023/02/12 15:41:08;;;;;;;10.63;10.20;;;10.20;99.90;;;;;;5087435;28;20558;-73
2023/02/12 15:43:41;;;;;;;11.00;10.50;;;10.10;99.90;;;;;;5087455;28;20455;-75
2023/02/12 15:46:16;;;;;;;10.30;9.80;;;10.10;99.90;;;;;;5087313;28;20447;-75
2023/02/12 15:48:43;;;;;;;9.63;9.17;;;10.20;99.90;;;;;;5087586;28;20454;-74
2023/02/12 15:51:17;;;;;;;10.00;9.40;;;10.20;99.90;;;;;;5087271;28;20451;-74
2023/02/12 15:53:44;;;;;;;11.27;10.67;;;10.20;99.90;;;;;;5087632;28;20454;-74
2023/02/12 15:56:14;;;;;;;11.80;11.10;;;10.20;99.90;;;;;;5087549;28;20445;-74
2023/02/12 15:58:46;;;;;;;11.10;10.60;;;10.10;99.90;;;;;;5087290;28;20447;-74
2023/02/12 16:01:17;;;;;;;10.70;10.20;;;10.10;99.90;;;;;;5087500;28;20859;-75
2023/02/12 16:03:44;;;;;;;10.27;9.77;;;10.10;99.90;;;;;;5087591;28;20471;-75
2023/02/12 16:06:15;;;;;;;11.03;10.53;;;10.00;99.90;;;;;;5086911;28;20478;-74
2023/02/12 16:08:44;;;;;;;11.60;11.00;;;10.00;99.90;;;;;;5087414;28;20454;-74
2023/02/12 16:11:15;;;;;;;11.80;11.20;;;9.90;99.90;;;;;;5087105;28;20490;-74
2023/02/12 16:13:45;;;;;;;10.90;10.50;;;9.80;99.90;;;;;;5087240;28;20447;-74
2023/02/12 16:16:21;;;;;;;10.27;9.77;;;9.70;99.90;;;;;;5087106;28;20494;-75
2023/02/12 16:19:04;;;;;;;9.70;9.30;;;9.70;99.90;;;;;;5086882;28;20452;-74
2023/02/12 16:21:31;;;;;;;9.10;8.70;;;9.60;99.90;;;;;;5087009;28;20450;-75
2023/02/12 16:23:58;;;;;;;10.60;10.10;;;9.60;99.90;;;;;;5087186;28;20530;-75
2023/02/12 16:26:26;;;;;;;13.17;12.10;;;9.50;99.90;;;;;;5086893;28;20465;-74
2023/02/12 16:28:55;;;;;;;13.50;12.60;;;9.40;99.90;;;;;;5086659;28;20499;-73
2023/02/12 16:31:25;;;;;;;13.07;12.27;;;9.20;99.90;;;;;;5086477;28;20451;-73
2023/02/12 16:33:54;;;;;;;13.77;13.07;;;9.10;99.90;;;;;;5086889;28;20454;-73
2023/02/12 16:36:30;;;;;;;13.17;12.57;;;9.00;99.90;;;;;;5086655;28;20805;-73
2023/02/12 16:38:58;;;;;;;14.17;13.20;;;8.80;99.90;;;;;;5086927;28;20442;-73
2023/02/12 16:41:27;;;;;;;14.50;13.70;;;8.70;99.90;;;;;;5086698;28;20450;-74
2023/02/12 16:44:30;;;;;;;14.17;13.27;;;8.70;99.90;;;;;;5086602;28;20462;-73
2023/02/12 16:47:00;;;;;;;13.87;13.07;;;8.50;99.90;;;;;;5004593;28;20450;-74
2023/02/12 16:49:27;;;;;;;15.03;14.13;;;8.50;99.90;;;;;;5004458;28;20447;-74
2023/02/12 16:52:18;;;;;;;15.07;14.07;;;8.40;99.90;;;;;;5043881;28;20835;-74
2023/02/12 16:54:45;;;;;;;15.03;14.10;;;8.30;99.90;;;;;;5086547;28;20500;-74
2023/02/12 16:57:12;;;;;;;13.90;12.97;;;8.30;99.90;;;;;;5086608;28;20454;-74
2023/02/12 16:59:43;;;;;;;14.13;13.33;;;8.20;99.90;;;;;;5086409;28;20997;-74
2023/02/12 17:02:13;;;;;;;16.00;15.00;;;8.10;99.90;;;;;;5086636;28;20457;-74
2023/02/12 17:04:39;;;;;;;17.33;16.03;;;8.00;99.90;;;;;;5086531;28;20531;-74
2023/02/12 17:07:18;;;;;;;16.30;15.30;;;8.00;99.90;;;;;;5085988;28;21004;-74
2023/02/12 17:09:44;;;;;;;16.50;15.20;;;7.90;99.90;;;;;;5085931;28;20466;-74
2023/02/12 17:12:11;;;;;;;18.03;16.60;;;7.80;99.90;;;;;;5086097;28;20487;-74
2023/02/12 17:14:38;;;;;;;26.17;23.43;;;7.80;99.90;;;;;;5085976;28;20931;-74
2023/02/12 17:17:04;;;;;;;17.30;16.20;;;7.70;99.90;;;;;;5086099;28;20701;-74
2023/02/12 17:19:32;;;;;;;28.07;24.63;;;7.50;99.90;;;;;;5086246;28;20451;-74
2023/02/12 17:21:59;;;;;;;23.63;21.63;;;7.40;99.90;;;;;;5086160;28;20506;-74
2023/02/12 17:24:28;;;;;;;26.40;23.80;;;7.40;99.90;;;;;;5086179;28;20457;-74
2023/02/12 17:26:56;;;;;;;30.70;27.73;;;7.30;99.90;;;;;;5086089;28;20460;-74
2023/02/12 17:29:25;;;;;;;26.30;23.77;;;7.20;99.90;;;;;;5085948;28;20457;-74
2023/02/12 17:31:54;;;;;;;21.20;19.60;;;7.10;99.90;;;;;;5086264;28;20665;-74
2023/02/12 17:34:21;;;;;;;31.83;28.90;;;7.00;99.90;;;;;;5086044;28;20825;-74
2023/02/12 17:36:50;;;;;;;28.33;25.33;;;6.90;99.90;;;;;;5086071;28;20460;-73
2023/02/12 17:39:17;;;;;;;19.20;17.70;;;6.80;99.90;;;;;;5086256;28;20482;-73
2023/02/12 17:41:44;;;;;;;32.73;24.07;;;6.80;99.90;;;;;;5086269;28;20480;-73
2023/02/12 17:44:12;;;;;;;21.27;19.47;;;6.70;99.90;;;;;;5086143;28;20553;-73
2023/02/12 17:46:39;;;;;;;18.17;16.93;;;6.70;99.90;;;;;;5085916;28;20450;-74
2023/02/12 17:49:06;;;;;;;21.80;20.10;;;6.70;99.90;;;;;;5085886;28;20503;-74
2023/02/12 17:51:32;;;;;;;18.13;16.87;;;6.60;99.90;;;;;;5085809;28;20825;-75
2023/02/12 17:54:00;;;;;;;20.57;18.90;;;6.40;99.90;;;;;;5086149;28;20503;-75
2023/02/12 17:56:27;;;;;;;19.67;18.00;;;6.30;99.90;;;;;;5086122;28;20446;-75
2023/02/12 17:58:54;;;;;;;19.40;18.13;;;6.20;99.90;;;;;;5085857;28;20980;-75
